.
WxDataArchive / Data Records for 2009-12-13
2009-12-12 December 2009 2009-12-14

Data Records for Sunday, 13 December 2009

Time	Temp	Chill	HIndex	Humid	Dewpt	 Wind 	HiWind	WindDir	Rain 	Barom 
-----	----	-----	------	-----	-----	------	------	-------	-----	----- 
00:00	36.5	36.5	36.5	49	19.2	1	4	90	0.00	30.083 
00:05	36.3	36.3	36.3	49	19.0	2	5	112	0.00	30.083 
00:10	36.3	36.3	36.3	49	19.0	1	3	112	0.00	30.083 
00:15	36.2	36.2	36.2	49	18.9	2	4	90	0.00	30.064 
00:20	36.2	36.2	36.2	50	19.4	1	3	112	0.00	30.064 
00:25	36.2	36.2	36.2	49	18.9	2	5	112	0.00	30.064 
00:30	36.2	36.2	36.2	49	18.9	2	4	90	0.00	30.045 
00:35	36.2	36.2	36.2	49	18.9	1	3	112	0.00	30.045 
00:40	36.2	36.2	36.2	48	18.4	1	4	90	0.00	30.045 
00:45	36.2	36.2	36.2	48	18.4	1	3	112	0.00	30.031 
00:50	36.2	36.2	36.2	48	18.4	1	4	112	0.00	30.031 
00:55	36.3	36.3	36.3	48	18.5	2	4	135	0.00	30.031 
01:00	36.3	36.3	36.3	48	18.5	1	4	135	0.00	30.017 
01:05	36.5	36.5	36.5	47	18.2	2	5	90	0.00	30.017 
01:10	36.5	36.5	36.5	47	18.2	2	5	135	0.00	30.017 
01:15	36.6	36.6	36.6	47	18.3	2	6	90	0.00	29.999 
01:20	36.8	36.8	36.8	47	18.5	2	6	90	0.00	29.999 
01:25	36.9	36.9	36.9	47	18.6	2	9	112	0.00	29.999 
01:30	36.9	36.9	36.9	47	18.6	2	9	90	0.00	29.988 
01:35	37.0	37.0	37.0	49	19.6	2	6	90	0.00	29.988 
01:40	37.0	37.0	37.0	50	20.1	2	7	112	0.00	29.988 
01:45	37.0	37.0	37.0	54	21.9	1	5	90	0.00	29.994 
01:50	36.8	36.8	36.8	56	22.6	1	4	90	0.00	29.994 
01:55	36.6	36.6	36.6	57	22.8	2	4	90	0.00	29.994 
02:00	36.6	36.6	36.6	58	23.2	1	4	90	0.00	29.983 
02:05	36.6	36.6	36.6	59	23.6	2	5	90	0.00	29.983 
02:10	36.6	36.6	36.6	58	23.2	3	5	112	0.00	29.983 
02:15	36.8	36.8	36.8	58	23.4	2	6	68	0.00	29.973 
02:20	36.9	36.9	36.9	58	23.5	2	6	90	0.00	29.973 
02:25	37.0	37.0	37.0	58	23.6	1	4	135	0.00	29.973 
02:30	37.0	37.0	37.0	60	24.4	1	4	90	0.00	29.974 
02:35	36.9	36.9	36.9	61	24.7	1	4	90	0.00	29.974 
02:40	37.0	37.0	37.0	61	24.8	1	5	90	0.00	29.974 
02:45	37.3	37.3	37.3	60	24.7	2	6	112	0.00	29.964 
02:50	37.5	37.5	37.5	60	24.9	2	7	112	0.00	29.964 
02:55	37.8	37.8	37.8	61	25.6	2	10	90	0.00	29.964 
03:00	37.8	37.8	37.8	62	26.0	1	5	90	0.00	29.956 
03:05	37.9	37.9	37.9	62	26.1	2	5	90	0.00	29.956 
03:10	38.0	38.0	38.0	62	26.2	1	5	90	0.00	29.956 
03:15	38.2	38.2	38.2	63	26.7	1	6	248	0.00	29.950 
03:20	38.2	38.2	38.2	65	27.5	1	3	292	0.00	29.950 
03:25	38.0	38.0	38.0	67	28.0	1	4	68	0.00	29.950 
03:30	37.9	37.9	37.9	69	28.7	1	6	90	0.00	29.948 
03:35	37.9	37.9	37.9	71	29.4	2	9	248	0.00	29.948 
03:40	37.8	37.8	37.8	73	29.9	1	5	248	0.00	29.948 
03:45	37.6	37.6	37.6	76	30.7	2	7	248	0.00	29.950 
03:50	37.3	37.3	37.3	79	31.4	2	7	225	0.00	29.950 
03:55	37.0	37.0	37.0	82	32.0	1	4	248	0.00	29.950 
04:00	36.8	36.8	36.8	84	32.4	1	6	248	0.00	29.939 
04:05	36.6	36.6	36.6	85	32.5	1	5	248	0.00	29.939 
04:10	36.6	36.6	36.6	86	32.8	1	6	270	0.01	29.939 
04:15	36.5	36.5	36.5	87	33.0	1	4	248	0.00	29.938 
04:20	36.5	36.5	36.5	88	33.3	1	3	248	0.01	29.938 
04:25	36.5	36.5	36.5	89	33.6	1	4	248	0.00	29.938 
04:30	36.5	36.5	36.5	90	33.9	1	5	248	0.01	29.934 
04:35	36.5	36.5	36.5	90	33.9	2	5	248	0.01	29.934 
04:40	36.5	36.5	36.5	91	34.1	1	3	225	0.01	29.934 
04:45	36.5	36.5	36.5	91	34.1	1	3	225	0.01	29.936 
04:50	36.5	36.5	36.5	91	34.1	1	3	248	0.01	29.936 
04:55	36.5	36.5	36.5	92	34.4	1	2	248	0.02	29.936 
05:00	36.3	36.3	36.3	92	34.2	0	2	248	0.01	29.939 
05:05	36.3	36.3	36.3	92	34.2	0	2	248	0.00	29.939 
05:10	36.3	36.3	36.3	92	34.2	0	3	248	0.01	29.939 
05:15	36.3	36.3	36.3	92	34.2	0	3	270	0.01	29.931 
05:20	36.3	36.3	36.3	93	34.5	0	2	270	0.01	29.931 
05:25	36.5	36.5	36.5	93	34.7	0	2	292	0.01	29.931 
05:30	36.5	36.5	36.5	93	34.7	0	3	248	0.01	29.927 
05:35	36.5	36.5	36.5	93	34.7	0	1	248	0.01	29.927 
05:40	36.6	36.6	36.6	93	34.8	0	2	248	0.01	29.927 
05:45	36.6	36.6	36.6	93	34.8	0	3	248	0.01	29.916 
05:50	36.8	36.8	36.8	94	35.2	0	3	248	0.01	29.916 
05:55	36.9	36.9	36.9	94	35.3	1	4	248	0.01	29.916 
06:00	36.9	36.9	36.9	94	35.3	0	2	248	0.00	29.933 
06:05	36.9	36.9	36.9	94	35.3	0	1	248	0.01	29.933 
06:10	37.0	37.0	37.0	94	35.4	0	2	248	0.01	29.933 
06:15	37.0	37.0	37.0	94	35.4	0	2	248	0.02	29.923 
06:20	37.2	37.2	37.2	94	35.6	0	2	248	0.00	29.923 
06:25	37.2	37.2	37.2	94	35.6	0	1	248	0.01	29.923 
06:30	37.2	37.2	37.2	94	35.6	0	2	248	0.00	29.906 
06:35	37.2	37.2	37.2	94	35.6	0	1	248	0.00	29.906 
06:40	37.3	37.3	37.3	94	35.7	0	1	248	0.01	29.906 
06:45	37.3	37.3	37.3	95	36.0	0	1	248	0.00	29.917 
06:50	37.3	37.3	37.3	95	36.0	0	1	248	0.00	29.917 
06:55	37.3	37.3	37.3	95	36.0	0	1	248	0.01	29.917 
07:00	37.3	37.3	37.3	95	36.0	0	1	248	0.00	29.907 
07:05	37.5	37.5	37.5	95	36.2	0	2	248	0.00	29.907 
07:10	37.5	37.5	37.5	95	36.2	0	1	248	0.00	29.907 
07:15	37.5	37.5	37.5	95	36.2	0	0	---	0.00	29.887 
07:20	37.5	37.5	37.5	95	36.2	0	2	248	0.00	29.887 
07:25	37.6	37.6	37.6	95	36.3	0	1	248	0.00	29.887 
07:30	37.6	37.6	37.6	95	36.3	0	2	248	0.01	29.902 
07:35	37.8	37.8	37.8	95	36.5	0	2	248	0.00	29.902 
07:40	37.8	37.8	37.8	95	36.5	0	1	248	0.00	29.902 
07:45	37.8	37.8	37.8	95	36.5	0	2	248	0.00	29.890 
07:50	37.8	37.8	37.8	95	36.5	1	3	248	0.00	29.890 
07:55	38.0	38.0	38.0	95	36.7	1	4	248	0.00	29.890 
08:00	38.2	38.2	38.2	95	36.9	1	3	248	0.00	29.888 
08:05	38.2	38.2	38.2	95	36.9	1	4	248	0.00	29.888 
08:10	38.3	38.3	38.3	95	37.0	1	3	292	0.00	29.888 
08:15	38.3	38.3	38.3	96	37.3	1	3	225	0.00	29.886 
08:20	38.3	38.3	38.3	96	37.3	1	4	248	0.00	29.886 
08:25	38.5	38.5	38.5	96	37.5	1	4	248	0.00	29.886 
08:30	38.5	38.5	38.5	96	37.5	1	4	248	0.00	29.880 
08:35	38.5	38.5	38.5	96	37.5	1	3	248	0.00	29.880 
08:40	38.5	38.5	38.5	96	37.5	0	2	248	0.00	29.880 
08:45	38.5	38.5	38.5	96	37.5	0	2	248	0.00	29.886 
08:50	38.5	38.5	38.5	96	37.5	1	4	248	0.00	29.886 
08:55	38.5	38.5	38.5	96	37.5	0	2	248	0.00	29.886 
09:00	38.5	38.5	38.5	96	37.5	1	4	248	0.00	29.894 
09:05	38.6	38.6	38.6	96	37.6	1	3	248	0.00	29.894 
09:10	38.6	38.6	38.6	96	37.6	1	3	248	0.00	29.894 
09:15	38.6	38.6	38.6	96	37.6	1	3	270	0.00	29.902 
09:20	38.6	38.6	38.6	96	37.6	1	4	270	0.00	29.902 
09:25	38.8	38.8	38.8	96	37.8	1	6	248	0.00	29.902 
09:30	38.8	38.8	38.8	96	37.8	2	5	248	0.00	29.904 
09:35	38.8	38.8	38.8	96	37.8	2	5	248	0.00	29.904 
09:40	38.8	38.8	38.8	96	37.8	1	3	248	0.00	29.904 
09:45	38.9	38.9	38.9	96	37.9	2	7	248	0.00	29.912 
09:50	38.9	38.9	38.9	96	37.9	1	6	248	0.00	29.912 
09:55	38.9	38.9	38.9	96	37.9	2	7	270	0.00	29.912 
10:00	39.1	39.1	39.1	96	38.1	2	7	248	0.00	29.918 
10:05	39.1	39.1	39.1	96	38.1	2	7	248	0.00	29.918 
10:10	39.1	39.1	39.1	96	38.1	2	5	248	0.01	29.918 
10:15	39.1	39.1	39.1	96	38.1	2	5	270	0.00	29.921 
10:20	39.2	39.2	39.2	96	38.2	3	6	248	0.00	29.921 
10:25	39.2	39.2	39.2	96	38.2	1	4	248	0.00	29.921 
10:30	39.2	39.2	39.2	96	38.2	1	3	248	0.00	29.931 
10:35	39.2	39.2	39.2	96	38.2	1	5	248	0.00	29.931 
10:40	39.2	39.2	39.2	96	38.2	1	5	248	0.00	29.931 
10:45	39.2	39.2	39.2	96	38.2	1	5	248	0.00	29.930 
10:50	39.2	39.2	39.2	96	38.2	2	4	270	0.00	29.930 
10:55	39.2	39.2	39.2	96	38.2	1	3	270	0.00	29.930 
11:00	39.2	39.2	39.2	96	38.2	1	3	270	0.00	29.934 
11:05	39.2	39.2	39.2	96	38.2	1	3	270	0.00	29.934 
11:10	39.2	39.2	39.2	96	38.2	1	3	270	0.00	29.934 
11:15	39.3	39.3	39.3	96	38.3	1	3	248	0.00	29.936 
11:20	39.2	39.2	39.2	96	38.2	1	5	270	0.00	29.936 
11:25	39.2	39.2	39.2	96	38.2	1	3	248	0.00	29.936 
11:30	39.2	39.2	39.2	96	38.2	1	3	248	0.00	29.942 
11:35	39.1	39.1	39.1	96	38.1	1	4	248	0.00	29.942 
11:40	39.1	39.1	39.1	96	38.1	1	3	248	0.00	29.942 
11:45	38.9	38.9	38.9	96	37.9	2	4	248	0.00	29.946 
11:50	38.8	38.8	38.8	96	37.8	1	3	248	0.00	29.946 
11:55	38.8	38.8	38.8	96	37.8	1	3	248	0.00	29.946 
12:00	38.8	38.8	38.8	96	37.8	0	2	248	0.00	29.934 
12:05	38.8	38.8	38.8	96	37.8	1	4	248	0.00	29.934 
12:10	38.8	38.8	38.8	96	37.8	0	2	270	0.00	29.934 
12:15	38.6	38.6	38.6	96	37.6	1	3	270	0.00	29.935 
12:20	38.8	38.8	38.8	96	37.8	0	2	270	0.00	29.935 
12:25	38.8	38.8	38.8	96	37.8	1	3	270	0.00	29.935 
12:30	38.8	38.8	38.8	96	37.8	1	3	270	0.00	29.945 
12:35	38.8	38.8	38.8	96	37.8	0	1	270	0.00	29.945 
12:40	38.9	38.9	38.9	96	37.9	0	3	248	0.00	29.945 
12:45	38.9	38.9	38.9	96	37.9	0	1	248	0.00	29.938 
12:50	38.8	38.8	38.8	96	37.8	1	4	248	0.00	29.938 
12:55	38.8	38.8	38.8	96	37.8	1	3	248	0.00	29.938 
13:00	38.6	38.6	38.6	96	37.6	1	2	270	0.00	29.945 
13:05	38.6	38.6	38.6	96	37.6	1	3	248	0.00	29.945 
13:10	38.5	38.5	38.5	96	37.5	1	4	248	0.00	29.945 
13:15	38.3	38.3	38.3	96	37.3	1	3	292	0.00	29.946 
13:20	38.3	38.3	38.3	96	37.3	0	2	292	0.00	29.946 
13:25	38.3	38.3	38.3	95	37.0	0	2	292	0.00	29.946 
13:30	38.3	38.3	38.3	96	37.3	1	4	248	0.00	29.944 
13:35	38.2	38.2	38.2	95	36.9	1	2	315	0.00	29.944 
13:40	38.2	38.2	38.2	95	36.9	1	2	315	0.00	29.944 
13:45	38.3	38.3	38.3	95	37.0	0	2	315	0.00	29.949 
13:50	38.3	38.3	38.3	95	37.0	1	3	292	0.00	29.949 
13:55	38.3	38.3	38.3	95	37.0	0	2	292	0.00	29.949 
14:00	38.3	38.3	38.3	95	37.0	1	4	248	0.00	29.956 
14:05	38.2	38.2	38.2	95	36.9	1	3	315	0.00	29.956 
14:10	38.2	38.2	38.2	95	36.9	1	3	248	0.00	29.956 
14:15	38.0	38.0	38.0	95	36.7	0	2	248	0.00	29.955 
14:20	38.0	38.0	38.0	95	36.7	1	5	248	0.00	29.955 
14:25	38.0	38.0	38.0	95	36.7	0	3	248	0.00	29.955 
14:30	38.0	38.0	38.0	95	36.7	0	1	248	0.00	29.962 
14:35	38.0	38.0	38.0	95	36.7	0	2	248	0.00	29.962 
14:40	38.0	38.0	38.0	95	36.7	0	2	248	0.00	29.962 
14:45	38.0	38.0	38.0	95	36.7	0	2	248	0.00	29.969 
14:50	38.0	38.0	38.0	95	36.7	0	3	248	0.00	29.969 
14:55	38.0	38.0	38.0	95	36.7	0	2	248	0.00	29.969 
15:00	37.9	37.9	37.9	94	36.3	0	2	248	0.00	29.971 
15:05	37.8	37.8	37.8	94	36.2	1	3	338	0.00	29.971 
15:10	37.8	37.8	37.8	94	36.2	0	2	315	0.00	29.971 
15:15	37.6	37.6	37.6	94	36.0	1	3	248	0.00	29.985 
15:20	37.6	37.6	37.6	94	36.0	1	3	270	0.00	29.985 
15:25	37.6	37.6	37.6	93	35.8	0	1	270	0.00	29.985 
15:30	37.6	37.6	37.6	93	35.8	0	1	270	0.00	29.991 
15:35	37.6	37.6	37.6	93	35.8	0	2	270	0.00	29.991 
15:40	37.6	37.6	37.6	93	35.8	0	1	270	0.00	29.991 
15:45	37.6	37.6	37.6	93	35.8	0	2	270	0.00	29.997 
15:50	37.5	37.5	37.5	93	35.7	0	1	270	0.00	29.997 
15:55	37.3	37.3	37.3	92	35.2	0	2	270	0.00	29.997 
16:00	37.3	37.3	37.3	92	35.2	0	1	270	0.00	30.008 
16:05	37.3	37.3	37.3	92	35.2	0	2	270	0.00	30.008 
16:10	37.2	37.2	37.2	92	35.1	0	2	270	0.00	30.008 
16:15	37.2	37.2	37.2	92	35.1	0	0	---	0.00	30.017 
16:20	37.2	37.2	37.2	92	35.1	0	1	270	0.00	30.017 
16:25	37.2	37.2	37.2	92	35.1	0	1	270	0.00	30.017 
16:30	37.2	37.2	37.2	92	35.1	0	1	270	0.00	30.020 
16:35	37.2	37.2	37.2	92	35.1	0	0	---	0.00	30.020 
16:40	37.0	37.0	37.0	92	34.9	0	2	270	0.00	30.020 
16:45	37.0	37.0	37.0	92	34.9	0	0	---	0.00	30.020 
16:50	36.9	36.9	36.9	92	34.8	0	1	270	0.00	30.020 
16:55	36.9	36.9	36.9	92	34.8	0	1	270	0.00	30.020 
17:00	36.9	36.9	36.9	92	34.8	0	2	270	0.00	30.036 
17:05	36.9	36.9	36.9	92	34.8	0	1	270	0.00	30.036 
17:10	36.8	36.8	36.8	92	34.7	0	1	270	0.00	30.036 
17:15	36.8	36.8	36.8	92	34.7	0	0	---	0.00	30.043 
17:20	36.8	36.8	36.8	92	34.7	0	1	270	0.00	30.043 
17:25	36.6	36.6	36.6	92	34.5	0	0	---	0.00	30.043 
17:30	36.6	36.6	36.6	92	34.5	0	0	---	0.00	30.036 
17:35	36.5	36.5	36.5	92	34.4	0	1	270	0.00	30.036 
17:40	36.5	36.5	36.5	92	34.4	0	1	270	0.00	30.036 
17:45	36.5	36.5	36.5	92	34.4	0	0	---	0.00	30.040 
17:50	36.5	36.5	36.5	92	34.4	0	0	---	0.00	30.040 
17:55	36.3	36.3	36.3	92	34.2	0	0	---	0.00	30.040 
18:00	36.3	36.3	36.3	92	34.2	0	0	---	0.00	30.034 
18:05	36.2	36.2	36.2	92	34.1	0	0	---	0.00	30.034 
18:10	36.2	36.2	36.2	92	34.1	0	0	---	0.00	30.034 
18:15	36.2	36.2	36.2	92	34.1	0	0	---	0.00	30.025 
18:20	36.0	36.0	36.0	92	33.9	0	0	---	0.00	30.025 
18:25	36.0	36.0	36.0	92	33.9	0	0	---	0.00	30.025 
18:30	36.0	36.0	36.0	92	33.9	0	0	---	0.00	30.025 
18:35	36.0	36.0	36.0	92	33.9	0	0	---	0.00	30.025 
18:40	35.9	35.9	35.9	92	33.8	0	0	---	0.00	30.025 
18:45	35.9	35.9	35.9	92	33.8	0	0	---	0.00	30.033 
18:50	35.9	35.9	35.9	92	33.8	0	0	---	0.00	30.033 
18:55	35.9	35.9	35.9	92	33.8	0	0	---	0.00	30.033 
19:00	35.8	35.8	35.8	92	33.7	0	0	---	0.00	30.044 
19:05	35.8	35.8	35.8	92	33.7	0	0	---	0.00	30.044 
19:10	35.8	35.8	35.8	92	33.7	0	0	---	0.00	30.044 
19:15	35.8	35.8	35.8	92	33.7	0	0	---	0.00	30.028 
19:20	35.8	35.8	35.8	92	33.7	0	0	---	0.00	30.028 
19:25	35.6	35.6	35.6	92	33.5	0	0	---	0.00	30.028 
19:30	35.6	35.6	35.6	92	33.5	0	1	270	0.00	30.045 
19:35	35.6	35.6	35.6	92	33.5	0	0	---	0.00	30.045 
19:40	35.6	35.6	35.6	92	33.5	0	1	270	0.00	30.045 
19:45	35.6	35.6	35.6	92	33.5	0	1	270	0.00	30.071 
19:50	35.6	35.6	35.6	92	33.5	0	0	---	0.00	30.071 
19:55	35.6	35.6	35.6	92	33.5	0	0	---	0.00	30.071 
20:00	35.6	35.6	35.6	92	33.5	0	0	---	0.00	30.062 
20:05	35.5	35.5	35.5	92	33.4	0	0	---	0.00	30.062 
20:10	35.5	35.5	35.5	92	33.4	0	1	270	0.00	30.062 
20:15	35.5	35.5	35.5	92	33.4	0	1	270	0.00	30.061 
20:20	35.5	35.5	35.5	91	33.1	0	0	---	0.00	30.061 
20:25	35.6	35.6	35.6	91	33.2	0	0	---	0.00	30.061 
20:30	35.6	35.6	35.6	91	33.2	0	0	---	0.00	30.069 
20:35	35.6	35.6	35.6	91	33.2	0	3	248	0.00	30.069 
20:40	35.6	35.6	35.6	91	33.2	0	3	248	0.00	30.069 
20:45	35.8	35.8	35.8	91	33.4	0	1	248	0.00	30.077 
20:50	35.8	35.8	35.8	90	33.2	0	1	248	0.00	30.077 
20:55	35.8	35.8	35.8	90	33.2	0	0	---	0.00	30.077 
21:00	35.6	35.6	35.6	90	33.0	0	0	---	0.00	30.073 
21:05	35.6	35.6	35.6	90	33.0	0	0	---	0.00	30.073 
21:10	35.6	35.6	35.6	90	33.0	0	1	248	0.00	30.073 
21:15	35.8	35.8	35.8	90	33.2	0	1	248	0.00	30.083 
21:20	35.8	35.8	35.8	90	33.2	0	1	248	0.00	30.083 
21:25	35.8	35.8	35.8	90	33.2	0	1	248	0.00	30.083 
21:30	35.8	35.8	35.8	90	33.2	0	1	248	0.00	30.079 
21:35	35.8	35.8	35.8	90	33.2	0	1	248	0.00	30.079 
21:40	35.8	35.8	35.8	90	33.2	0	0	---	0.00	30.079 
21:45	35.8	35.8	35.8	90	33.2	0	0	---	0.00	30.081 
21:50	35.8	35.8	35.8	90	33.2	0	0	---	0.00	30.081 
21:55	35.8	35.8	35.8	90	33.2	0	0	---	0.00	30.081 
22:00	35.8	35.8	35.8	90	33.2	0	0	---	0.00	30.076 
22:05	35.8	35.8	35.8	91	33.4	0	0	---	0.00	30.076 
22:10	35.8	35.8	35.8	91	33.4	0	0	---	0.00	30.076 
22:15	35.8	35.8	35.8	91	33.4	0	1	248	0.00	30.061 
22:20	35.6	35.6	35.6	92	33.5	0	1	248	0.00	30.061 
22:25	35.5	35.5	35.5	92	33.4	0	2	248	0.00	30.061 
22:30	35.5	35.5	35.5	92	33.4	0	1	248	0.00	30.043 
22:35	35.5	35.5	35.5	92	33.4	0	2	248	0.00	30.043 
22:40	35.3	35.3	35.3	92	33.2	0	1	248	0.00	30.043 
22:45	35.2	35.2	35.2	92	33.1	0	0	---	0.00	30.050 
22:50	35.2	35.2	35.2	93	33.4	0	0	---	0.00	30.050 
22:55	35.0	35.0	35.0	93	33.2	0	0	---	0.00	30.050 
23:00	35.0	35.0	35.0	93	33.2	0	0	---	0.00	30.055 
23:05	35.0	35.0	35.0	93	33.2	0	2	248	0.00	30.055 
23:10	34.9	34.9	34.9	93	33.1	0	0	---	0.00	30.055 
23:15	34.9	34.9	34.9	93	33.1	0	1	248	0.00	30.039 
23:20	34.9	34.9	34.9	93	33.1	0	1	248	0.00	30.039 
23:25	34.7	34.7	34.7	93	32.9	0	0	---	0.00	30.039 
23:30	34.7	34.7	34.7	94	33.2	0	0	---	0.00	30.047 
23:35	34.6	34.6	34.6	94	33.1	0	0	---	0.00	30.047 
23:40	34.7	34.7	34.7	94	33.2	0	1	248	0.00	30.047 
23:45	34.7	34.7	34.7	94	33.2	0	1	248	0.00	30.044 
23:50	34.7	34.7	34.7	94	33.2	0	1	248	0.00	30.044 
23:55	34.7	34.7	34.7	94	33.2	0	1	248	0.00	30.044 

CoCoRaHS
IN-AL-39
A2 Web Hosting
Creative Commons License
GoDaddy
search engine by freefind advanced

loaded 2018-11-18 11:19:03 • last modified 2010-11-18 10:43:29
Privacy PolicyDisclaimer
• wx.awcolley.com is powered by PmWiki v.2002016 •
• all content (unless otherwise noted) © 2018 A W Colley